Clinton, Connecticut
Current Conditions -  °F | °C
As of 7:35 PM on Friday 24 Oct 2014 (Local Time) from KSNC Reporting Station
Broken Clouds Broken Clouds  
Wind Chill: 52°   Ceiling: 3200
Heat Index: 52°   Visibility: 10mi
Dew Point: 43°   Wind: 9mph
Humidity: 71%   Direction: 340°NNW
Pressure: 29.78"   Gusts: NA
Location:  41.28°N, 72.53°W
Report Text: KSNC 242335Z AUTO 34008KT 020V360 10SM BKN032 11/06 A2978 RMK AO2
Loading
Personal Weather Stations






























Interactive Weather Map
Tropical Storm Tracking
New forecast layout! Learn more

10-Day Weather Forecast

Advertisements
Track Severe Weather on mobile